Archiv-/Tagesdaten

--Timestamp---	Temp	Chill	HIndex	Humid	Dewpt	 Wind 	HiWind	WindDir	Rain 	Barom	Solar	 ET  	 UV 
--------------	----	-----	------	-----	-----	------	------	-------	-----	-----	-----	-----	----
20101111 00:00	6.1	2.9	6.1	86	3.9	16	31	248	0.0	1002.9	0	0.025	0.0
20101111 00:05	6.1	3.2	6.1	86	3.9	14	27	248	0.0	1003.1	0	0.000	0.0
20101111 00:10	6.2	3.3	6.2	86	4.0	14	26	248	0.0	1003.1	0	0.000	0.0
20101111 00:15	6.2	3.5	6.2	86	4.0	13	24	248	0.0	1003.2	0	0.000	0.0
20101111 00:20	6.2	3.0	6.2	86	4.0	16	26	270	0.0	1003.3	0	0.000	0.0
20101111 00:25	6.2	3.8	6.2	86	4.0	11	23	270	0.0	1003.5	0	0.000	0.0
20101111 00:30	6.1	4.1	6.1	86	3.9	10	19	270	0.0	1003.7	0	0.000	0.0
20101111 00:35	6.1	3.2	6.1	86	3.9	14	24	248	0.0	1003.7	0	0.000	0.0
20101111 00:40	6.2	3.0	6.2	86	4.0	16	29	270	0.0	1003.9	0	0.000	0.0
20101111 00:45	6.2	3.3	6.2	86	4.0	14	26	270	0.0	1004.0	0	0.000	0.0
20101111 00:50	6.2	3.3	6.2	86	4.0	14	21	248	0.0	1004.1	0	0.000	0.0
20101111 00:55	6.2	3.3	6.2	86	4.1	14	23	270	0.0	1004.1	0	0.000	0.0
20101111 01:00	6.2	3.3	6.2	86	4.1	14	26	248	0.0	1004.4	0	0.025	0.0
20101111 01:05	6.3	3.2	6.3	86	4.1	16	27	270	0.0	1004.4	0	0.000	0.0
20101111 01:10	6.3	3.2	6.3	86	4.1	16	26	270	0.0	1004.5	0	0.000	0.0
20101111 01:15	6.3	3.0	6.3	86	4.1	18	31	270	0.0	1004.6	0	0.000	0.0
20101111 01:20	6.3	2.6	6.3	86	4.1	21	34	270	0.0	1004.8	0	0.000	0.0
20101111 01:25	6.2	2.3	6.2	86	4.1	23	47	292	0.0	1005.0	0	0.000	0.0
20101111 01:30	6.1	1.7	6.1	85	3.7	27	50	270	0.0	1005.1	0	0.000	0.0
20101111 01:35	5.9	2.0	5.9	85	3.6	23	39	270	0.0	1005.4	0	0.000	0.0
20101111 01:40	5.8	1.8	5.8	85	3.5	23	35	270	0.0	1005.5	0	0.000	0.0
20101111 01:45	5.7	1.6	5.7	86	3.5	23	40	270	0.0	1005.7	0	0.000	0.0
20101111 01:50	5.6	1.5	5.6	86	3.4	23	39	292	0.2	1006.0	0	0.000	0.0
20101111 01:55	5.4	1.5	5.4	86	3.3	21	35	292	0.0	1006.2	0	0.000	0.0
20101111 02:00	5.3	0.7	5.3	84	2.9	27	45	292	0.0	1006.6	0	0.025	0.0
20101111 02:05	5.2	0.9	5.2	82	2.4	24	35	270	0.0	1006.8	0	0.000	0.0
20101111 02:10	5.1	1.2	5.1	82	2.2	19	32	292	0.0	1006.8	0	0.000	0.0
20101111 02:15	4.9	1.1	4.9	81	2.0	19	32	270	0.0	1007.1	0	0.000	0.0
20101111 02:20	4.8	1.0	4.8	82	2.0	19	27	292	0.0	1007.2	0	0.000	0.0
20101111 02:25	4.8	1.1	4.8	83	2.1	18	34	270	0.0	1007.3	0	0.000	0.0
20101111 02:30	4.8	1.1	4.8	83	2.1	18	35	292	0.0	1007.6	0	0.000	0.0
20101111 02:35	4.7	0.6	4.7	84	2.3	21	32	270	0.0	1007.7	0	0.000	0.0
20101111 02:40	4.7	1.2	4.7	84	2.2	16	26	270	0.0	1007.7	0	0.000	0.0
20101111 02:45	4.6	0.5	4.6	84	2.1	21	37	292	0.0	1007.8	0	0.000	0.0
20101111 02:50	4.6	0.6	4.6	84	2.1	19	32	292	0.0	1008.1	0	0.000	0.0
20101111 02:55	4.5	1.2	4.5	84	2.0	14	27	292	0.0	1008.1	0	0.000	0.0
20101111 03:00	4.4	0.7	4.4	84	2.0	18	26	270	0.0	1008.1	0	0.025	0.0
20101111 03:05	4.4	1.1	4.4	84	1.9	14	23	292	0.0	1008.3	0	0.000	0.0
20101111 03:10	4.3	1.5	4.3	85	2.0	11	23	292	0.0	1008.5	0	0.000	0.0
20101111 03:15	4.2	0.6	4.2	85	1.9	16	26	270	0.0	1008.5	0	0.000	0.0
20101111 03:20	4.2	0.6	4.2	85	1.9	16	24	292	0.0	1008.6	0	0.000	0.0
20101111 03:25	4.2	1.1	4.2	85	1.9	13	21	270	0.0	1008.8	0	0.000	0.0
20101111 03:30	4.1	0.8	4.1	86	2.0	14	26	270	0.0	1009.0	0	0.000	0.0
20101111 03:35	4.1	1.0	4.1	86	2.0	13	19	292	0.0	1009.1	0	0.000	0.0
20101111 03:40	4.1	1.3	4.1	86	1.9	11	21	292	0.0	1009.1	0	0.000	0.0
20101111 03:45	4.0	0.9	4.0	86	1.9	13	23	292	0.0	1009.2	0	0.000	0.0
20101111 03:50	3.9	1.5	3.9	87	2.0	10	19	292	0.0	1009.1	0	0.000	0.0
20101111 03:55	3.8	1.8	3.8	87	1.9	8	18	292	0.0	1009.1	0	0.000	0.0
20101111 04:00	3.8	1.0	3.8	87	1.9	11	21	292	0.0	1009.3	0	0.025	0.0
20101111 04:05	3.8	1.8	3.8	87	1.9	8	16	270	0.0	1009.6	0	0.000	0.0
20101111 04:10	3.8	1.8	3.8	87	1.9	8	14	292	0.0	1009.5	0	0.000	0.0
20101111 04:15	3.8	0.7	3.8	87	1.9	13	19	292	0.0	1009.6	0	0.000	0.0
20101111 04:20	3.8	0.6	3.8	87	1.8	13	21	292	0.0	1009.7	0	0.000	0.0
20101111 04:25	3.8	0.3	3.8	87	1.8	14	26	292	0.0	1009.8	0	0.000	0.0
20101111 04:30	3.8	1.3	3.8	87	1.8	10	18	292	0.0	1009.8	0	0.000	0.0
20101111 04:35	3.7	0.9	3.7	87	1.8	11	21	292	0.0	1010.0	0	0.000	0.0
20101111 04:40	3.7	1.2	3.7	87	1.8	10	18	292	0.0	1010.1	0	0.000	0.0
20101111 04:45	3.7	1.2	3.7	87	1.7	10	16	292	0.0	1010.1	0	0.000	0.0
20101111 04:50	3.7	0.8	3.7	87	1.7	11	18	292	0.0	1010.3	0	0.000	0.0
20101111 04:55	3.7	1.2	3.7	87	1.8	10	19	292	0.0	1010.3	0	0.000	0.0
20101111 05:00	3.7	1.2	3.7	87	1.8	10	19	292	0.0	1010.4	0	0.025	0.0
20101111 05:05	3.7	0.9	3.7	87	1.8	11	19	292	0.0	1010.8	0	0.000	0.0
20101111 05:10	3.8	0.9	3.8	86	1.7	11	21	292	0.0	1010.9	0	0.000	0.0
20101111 05:15	3.8	0.4	3.8	86	1.7	14	24	292	0.0	1011.0	0	0.000	0.0
20101111 05:20	3.8	1.4	3.8	86	1.7	10	18	292	0.0	1011.0	0	0.000	0.0
20101111 05:25	3.8	1.4	3.8	86	1.7	10	19	292	0.0	1011.1	0	0.000	0.0
20101111 05:30	3.8	1.4	3.8	86	1.7	10	16	292	0.0	1011.1	0	0.000	0.0
20101111 05:35	3.8	2.2	3.8	86	1.7	6	11	248	0.0	1011.0	0	0.000	0.0
20101111 05:40	3.8	1.7	3.8	86	1.7	8	14	292	0.0	1011.1	0	0.000	0.0
20101111 05:45	3.8	1.7	3.8	86	1.7	8	18	270	0.0	1011.1	0	0.000	0.0
20101111 05:50	3.7	3.7	3.7	86	1.5	5	13	270	0.0	1011.2	0	0.000	0.0
20101111 05:55	3.6	3.6	3.6	86	1.4	5	8	292	0.0	1011.4	0	0.000	0.0
20101111 06:00	3.4	3.4	3.4	86	1.3	5	10	292	0.0	1011.3	0	0.025	0.0
20101111 06:05	3.3	3.3	3.3	87	1.3	5	8	292	0.0	1011.6	0	0.000	0.0
20101111 06:10	3.2	3.2	3.2	87	1.2	3	6	292	0.0	1011.7	0	0.000	0.0
20101111 06:15	3.1	3.1	3.1	87	1.1	3	6	292	0.0	1011.8	0	0.000	0.0
20101111 06:20	2.9	2.9	2.9	87	1.0	3	6	292	0.0	1011.9	0	0.000	0.0
20101111 06:25	2.8	2.8	2.8	88	1.0	2	5	292	0.0	1011.9	0	0.000	0.0
20101111 06:30	2.8	2.8	2.8	88	1.0	0	3	292	0.0	1011.9	0	0.000	0.0
20101111 06:35	2.7	2.7	2.7	88	0.9	0	0	-100000	0.0	1012.0	0	0.000	0.0
20101111 06:40	2.6	2.6	2.6	88	0.8	0	0	-100000	0.0	1012.1	0	0.000	0.0
20101111 06:45	2.4	2.4	2.4	88	0.7	0	0	-100000	0.0	1012.1	0	0.000	0.0
20101111 06:50	2.3	2.3	2.3	88	0.6	0	0	-100000	0.0	1012.2	0	0.000	0.0
20101111 06:55	2.2	2.2	2.2	88	0.4	0	0	-100000	0.0	1012.2	0	0.000	0.0
20101111 07:00	2.1	2.1	2.1	88	0.3	0	5	292	0.0	1012.2	0	0.000	0.0
20101111 07:05	2.1	2.1	2.1	89	0.4	2	5	292	0.0	1012.3	0	0.000	0.0
20101111 07:10	2.0	2.0	2.0	89	0.4	0	5	292	0.0	1012.3	0	0.000	0.0
20101111 07:15	2.0	2.0	2.0	89	0.4	3	6	292	0.0	1012.4	0	0.000	0.0
20101111 07:20	2.0	2.0	2.0	90	0.5	3	6	292	0.0	1012.4	0	0.000	0.0
20101111 07:25	2.0	2.0	2.0	90	0.5	3	8	292	0.0	1012.5	0	0.000	0.0
20101111 07:30	1.9	1.9	1.9	90	0.5	2	5	292	0.0	1012.5	5	0.000	0.0
20101111 07:35	1.9	1.9	1.9	89	0.3	0	3	292	0.0	1012.7	5	0.000	0.0
20101111 07:40	1.8	1.8	1.8	90	0.4	3	6	292	0.0	1012.8	7	0.000	0.0
20101111 07:45	1.9	1.9	1.9	90	0.4	5	8	270	0.0	1013.0	8	0.000	0.0
20101111 07:50	1.9	1.9	1.9	90	0.5	3	6	270	0.0	1013.0	12	0.000	0.0
20101111 07:55	2.1	2.1	2.1	90	0.6	5	8	270	0.0	1013.1	19	0.000	0.0
20101111 08:00	2.2	2.2	2.2	89	0.6	5	6	270	0.0	1013.1	21	0.000	0.0
20101111 08:05	2.3	2.3	2.3	88	0.6	3	6	270	0.0	1013.2	32	0.000	0.0
20101111 08:10	2.3	2.3	2.3	88	0.5	2	5	270	0.0	1013.2	42	0.000	0.0
20101111 08:15	2.3	2.3	2.3	88	0.6	0	2	270	0.0	1013.3	53	0.000	0.0
20101111 08:20	2.4	2.4	2.4	89	0.8	2	6	270	0.0	1013.4	56	0.000	0.0
20101111 08:25	2.5	2.5	2.5	89	0.9	3	6	270	0.0	1013.4	41	0.000	0.0
20101111 08:30	2.6	2.6	2.6	89	1.0	3	6	270	0.0	1013.3	39	0.000	0.0
20101111 08:35	2.7	2.7	2.7	89	1.1	3	8	270	0.0	1013.4	60	0.000	0.0
20101111 08:40	2.9	2.9	2.9	89	1.3	3	8	270	0.0	1013.3	69	0.000	0.0
20101111 08:45	3.1	1.4	3.1	88	1.3	6	11	225	0.0	1013.4	90	0.000	0.0
20101111 08:50	3.3	3.3	3.3	88	1.5	5	8	202	0.0	1013.4	83	0.000	0.0
20101111 08:55	3.5	3.5	3.5	87	1.5	5	11	225	0.0	1013.4	63	0.000	0.0
20101111 09:00	3.6	1.9	3.6	87	1.6	6	11	225	0.0	1013.2	50	0.025	0.0
20101111 09:05	3.6	3.6	3.6	86	1.5	5	10	225	0.0	1013.1	43	0.000	0.0
20101111 09:10	3.7	2.1	3.7	86	1.5	6	10	225	0.0	1013.1	41	0.000	0.0
20101111 09:15	3.8	2.2	3.8	86	1.7	6	11	225	0.0	1013.2	52	0.000	0.0
20101111 09:20	4.1	1.6	4.1	85	1.8	10	16	225	0.0	1013.1	55	0.000	0.0
20101111 09:25	4.3	2.3	4.3	85	2.0	8	16	225	0.0	1012.9	46	0.000	0.0
20101111 09:30	4.6	2.2	4.6	84	2.1	10	16	225	0.0	1012.9	42	0.000	0.0
20101111 09:35	4.7	2.4	4.7	82	1.9	10	18	248	0.0	1013.0	54	0.000	0.3
20101111 09:40	4.8	2.9	4.8	82	2.0	8	18	248	0.0	1013.0	70	0.000	0.4
20101111 09:45	5.0	3.1	5.0	82	2.2	8	11	248	0.0	1013.0	73	0.000	0.5
20101111 09:50	5.1	3.3	5.1	82	2.3	8	14	270	0.0	1013.1	89	0.000	0.5
20101111 09:55	5.3	4.0	5.3	82	2.5	6	11	270	0.0	1013.0	115	0.000	0.5
20101111 10:00	5.5	3.7	5.5	81	2.5	8	14	225	0.0	1012.9	106	0.025	0.6
20101111 10:05	5.7	2.9	5.7	80	2.5	13	24	270	0.0	1013.1	107	0.000	0.6
20101111 10:10	5.7	2.9	5.7	79	2.3	13	21	270	0.0	1013.1	76	0.000	0.6
20101111 10:15	5.6	3.5	5.6	79	2.3	10	18	270	0.0	1013.1	95	0.000	0.6
20101111 10:20	5.6	3.9	5.6	80	2.4	8	18	270	0.0	1013.1	165	0.000	0.6
20101111 10:25	5.8	3.4	5.8	79	2.5	11	19	270	0.0	1013.1	194	0.000	0.5
20101111 10:30	6.1	4.4	6.1	79	2.7	8	18	248	0.0	1013.1	200	0.000	0.6
20101111 10:35	6.3	4.3	6.3	78	2.8	10	19	270	0.0	1013.1	186	0.000	0.5
20101111 10:40	6.4	4.2	6.4	76	2.5	11	21	270	0.0	1013.0	128	0.000	0.5
20101111 10:45	6.3	3.4	6.3	75	2.2	14	21	292	0.0	1013.2	103	0.000	0.3
20101111 10:50	6.1	3.5	6.1	76	2.2	13	23	270	0.0	1013.1	62	0.000	0.5
20101111 10:55	5.9	3.5	5.9	76	2.0	11	21	270	0.0	1013.1	53	0.000	0.4
20101111 11:00	5.7	3.6	5.7	76	1.8	10	18	292	0.0	1013.1	43	0.076	0.0
20101111 11:05	5.7	3.9	5.7	77	2.0	8	14	270	0.0	1013.0	56	0.000	0.7
20101111 11:10	5.9	3.9	5.9	77	2.2	10	23	270	0.0	1012.8	397	0.000	1.1
20101111 11:15	6.3	4.0	6.3	76	2.4	11	21	270	0.0	1012.7	285	0.000	1.0
20101111 11:20	6.5	4.2	6.5	73	2.0	11	19	292	0.0	1012.7	251	0.000	0.8
20101111 11:25	6.6	5.0	6.6	74	2.3	8	16	270	0.0	1012.8	92	0.000	0.5
20101111 11:30	6.4	4.2	6.4	73	2.0	11	19	292	0.0	1012.8	54	0.000	0.1
20101111 11:35	6.3	5.1	6.3	75	2.2	6	14	292	0.0	1012.7	57	0.000	0.5
20101111 11:40	6.2	4.9	6.2	75	2.1	6	13	292	0.0	1012.7	74	0.000	0.8
20101111 11:45	6.1	4.8	6.1	75	2.0	6	13	270	0.0	1012.6	103	0.000	0.9
20101111 11:50	6.2	4.9	6.2	74	1.9	6	10	292	0.0	1012.5	258	0.000	1.2
20101111 11:55	6.4	4.2	6.4	72	1.8	11	21	270	0.0	1012.4	448	0.000	1.2
20101111 12:00	6.6	4.1	6.6	69	1.3	13	21	270	0.0	1012.4	155	0.102	1.1
20101111 12:05	6.7	4.8	6.7	69	1.4	10	19	248	0.0	1012.3	158	0.000	1.1
20101111 12:10	6.8	5.2	6.8	70	1.7	8	16	270	0.0	1012.2	79	0.000	1.1
20101111 12:15	6.8	5.7	6.8	69	1.5	6	11	270	0.0	1012.1	204	0.000	1.1
20101111 12:20	6.8	5.7	6.8	69	1.5	6	10	270	0.0	1012.0	134	0.000	1.0
20101111 12:25	6.7	5.6	6.7	70	1.6	6	16	270	0.0	1011.9	187	0.000	1.1
20101111 12:30	6.8	5.7	6.8	70	1.7	6	14	270	0.0	1011.9	84	0.000	1.1
20101111 12:35	7.0	5.5	7.0	70	1.9	8	19	292	0.0	1011.7	362	0.000	1.2
20101111 12:40	7.3	5.8	7.3	68	1.8	8	16	270	0.0	1011.6	385	0.000	1.1
20101111 12:45	7.2	5.7	7.2	66	1.2	8	18	270	0.0	1011.4	53	0.000	0.3
20101111 12:50	7.1	5.6	7.1	66	1.1	8	16	270	0.0	1011.4	206	0.000	1.1
20101111 12:55	7.2	5.3	7.2	64	0.8	10	18	270	0.0	1011.3	364	0.000	1.1
20101111 13:00	7.5	5.2	7.5	64	1.1	13	19	270	0.0	1011.2	403	0.127	1.1
20101111 13:05	7.8	5.6	7.8	63	1.2	13	24	270	0.0	1011.1	425	0.000	1.1
20101111 13:10	7.9	6.0	7.9	63	1.3	11	19	270	0.0	1011.0	357	0.000	1.1
20101111 13:15	8.1	6.8	8.1	63	1.5	8	18	292	0.0	1010.9	399	0.000	1.1
20101111 13:20	8.4	7.1	8.4	61	1.3	8	18	248	0.0	1010.9	317	0.000	1.0
20101111 13:25	8.4	7.1	8.4	62	1.5	8	18	292	0.0	1010.8	383	0.000	1.0
20101111 13:30	8.6	6.7	8.6	63	1.9	11	18	292	0.0	1010.7	383	0.000	1.0
20101111 13:35	8.6	7.4	8.6	61	1.5	8	18	248	0.0	1010.7	395	0.000	1.0
20101111 13:40	8.7	6.9	8.7	61	1.6	11	19	292	0.0	1010.6	364	0.000	0.9
20101111 13:45	8.8	7.0	8.8	60	1.4	11	19	270	0.0	1010.5	341	0.000	0.9
20101111 13:50	8.8	7.0	8.8	60	1.4	11	19	292	0.0	1010.4	366	0.000	0.8
20101111 13:55	8.8	7.6	8.8	61	1.7	8	16	270	0.0	1010.3	405	0.000	0.8
20101111 14:00	9.1	7.9	9.1	59	1.5	8	14	248	0.0	1010.2	344	0.203	0.8
20101111 14:05	9.2	8.0	9.2	57	1.1	8	14	248	0.0	1010.4	309	0.000	0.8
20101111 14:10	9.1	8.0	9.1	57	1.0	8	19	225	0.0	1010.4	307	0.000	0.7
20101111 14:15	9.0	7.8	9.0	56	0.7	8	18	225	0.0	1010.2	302	0.000	0.7
20101111 14:20	9.1	7.6	9.1	56	0.8	10	18	225	0.0	1010.2	290	0.000	0.7
20101111 14:25	9.1	7.4	9.1	57	1.0	11	21	225	0.0	1010.2	278	0.000	0.6
20101111 14:30	9.1	8.3	9.1	56	0.8	6	13	270	0.0	1010.1	252	0.000	0.6
20101111 14:35	9.1	8.3	9.1	58	1.2	6	11	248	0.0	1010.0	245	0.000	0.5
20101111 14:40	8.9	8.9	8.9	57	0.9	5	10	225	0.0	1009.9	193	0.000	0.5
20101111 14:45	8.8	7.2	8.8	57	0.7	10	19	225	0.0	1009.8	214	0.000	0.5
20101111 14:50	8.6	7.4	8.6	57	0.6	8	16	225	0.0	1009.8	213	0.000	0.1
20101111 14:55	8.5	7.6	8.5	58	0.7	6	10	248	0.0	1009.9	213	0.000	0.0
20101111 15:00	8.4	7.2	8.4	58	0.7	8	14	225	0.0	1009.8	171	0.152	0.0
20101111 15:05	8.4	7.1	8.4	58	0.6	8	14	225	0.0	1009.8	90	0.000	0.0
20101111 15:10	8.3	7.4	8.3	58	0.5	6	13	248	0.0	1009.7	68	0.000	0.0
20101111 15:15	8.2	8.2	8.2	60	0.9	5	10	225	0.0	1009.6	65	0.000	0.0
20101111 15:20	8.2	8.2	8.2	60	0.9	5	10	248	0.0	1009.6	61	0.000	0.0
20101111 15:25	8.1	8.1	8.1	59	0.5	5	10	248	0.0	1009.6	55	0.000	0.0
20101111 15:30	7.9	7.9	7.9	59	0.4	5	10	248	0.0	1009.8	53	0.000	0.0
20101111 15:35	7.8	7.8	7.8	61	0.7	3	6	248	0.0	1009.8	51	0.000	0.0
20101111 15:40	7.7	7.7	7.7	62	0.9	2	5	248	0.0	1009.8	52	0.000	0.0
20101111 15:45	7.7	7.7	7.7	63	1.1	5	8	248	0.0	1009.7	53	0.000	0.0
20101111 15:50	7.6	7.6	7.6	63	1.0	5	8	248	0.0	1009.6	54	0.000	0.0
20101111 15:55	7.6	7.6	7.6	63	1.0	3	8	248	0.0	1009.5	52	0.000	0.0
20101111 16:00	7.5	7.5	7.5	64	1.1	5	10	248	0.0	1009.3	49	0.051	0.0
20101111 16:05	7.4	7.4	7.4	65	1.3	5	10	202	0.0	1009.3	40	0.000	0.0
20101111 16:10	7.4	7.4	7.4	65	1.2	5	11	202	0.0	1009.2	32	0.000	0.0
20101111 16:15	7.3	7.3	7.3	65	1.1	5	8	202	0.0	1009.0	25	0.000	0.0
20101111 16:20	7.2	7.2	7.2	65	1.1	3	8	202	0.0	1009.0	20	0.000	0.0
20101111 16:25	7.1	7.1	7.1	65	1.0	3	10	202	0.0	1008.8	17	0.000	0.0
20101111 16:30	7.0	7.0	7.0	66	1.1	5	8	202	0.0	1008.8	9	0.000	0.0
20101111 16:35	6.8	6.8	6.8	67	1.1	3	6	180	0.0	1008.7	3	0.000	0.0
20101111 16:40	6.7	6.7	6.7	68	1.2	5	6	180	0.0	1008.6	0	0.000	0.0
20101111 16:45	6.5	6.5	6.5	68	1.0	3	10	180	0.0	1008.5	0	0.000	0.0
20101111 16:50	6.3	6.3	6.3	68	0.9	2	6	180	0.0	1008.6	0	0.000	0.0
20101111 16:55	6.2	6.2	6.2	69	0.9	3	6	180	0.0	1008.4	0	0.000	0.0
20101111 17:00	6.1	6.1	6.1	70	1.0	2	5	180	0.0	1008.3	0	0.025	0.0
20101111 17:05	5.9	5.9	5.9	70	0.8	2	5	180	0.0	1008.4	0	0.000	0.0
20101111 17:10	5.8	5.8	5.8	71	0.9	2	6	180	0.0	1008.3	0	0.000	0.0
20101111 17:15	5.7	5.7	5.7	71	0.9	3	6	180	0.0	1008.2	0	0.000	0.0
20101111 17:20	5.6	5.6	5.6	72	1.0	3	5	180	0.0	1008.3	0	0.000	0.0
20101111 17:25	5.5	5.5	5.5	72	0.9	3	6	180	0.0	1008.3	0	0.000	0.0
20101111 17:30	5.4	5.4	5.4	73	1.0	3	6	180	0.0	1008.3	0	0.000	0.0
20101111 17:35	5.4	5.4	5.4	73	0.9	3	8	180	0.0	1008.3	0	0.000	0.0
20101111 17:40	5.3	5.3	5.3	74	1.1	3	6	202	0.0	1008.3	0	0.000	0.0
20101111 17:45	5.3	5.3	5.3	74	1.0	5	10	180	0.0	1008.2	0	0.000	0.0
20101111 17:50	5.2	5.2	5.2	75	1.1	5	8	180	0.0	1008.3	0	0.000	0.0
20101111 17:55	5.1	5.1	5.1	75	1.0	3	10	180	0.0	1008.2	0	0.000	0.0
20101111 18:00	4.9	4.9	4.9	76	1.0	5	8	158	0.0	1008.2	0	0.025	0.0
20101111 18:05	4.8	4.8	4.8	76	0.9	3	8	158	0.0	1008.3	0	0.000	0.0
20101111 18:10	4.7	4.7	4.7	76	0.9	2	6	158	0.0	1008.1	0	0.000	0.0
20101111 18:15	4.7	4.7	4.7	76	0.8	5	8	158	0.0	1008.1	0	0.000	0.0
20101111 18:20	4.7	3.2	4.7	76	0.8	6	10	158	0.0	1008.0	0	0.000	0.0
20101111 18:25	4.7	3.3	4.7	76	0.9	6	10	158	0.0	1007.9	0	0.000	0.0
20101111 18:30	4.7	4.7	4.7	76	0.9	5	8	180	0.0	1008.0	0	0.000	0.0
20101111 18:35	4.7	4.7	4.7	76	0.8	5	8	180	0.0	1007.9	0	0.000	0.0
20101111 18:40	4.6	4.6	4.6	76	0.7	5	8	158	0.0	1007.8	0	0.000	0.0
20101111 18:45	4.5	4.5	4.5	77	0.8	5	8	180	0.0	1007.7	0	0.000	0.0
20101111 18:50	4.4	4.4	4.4	77	0.7	5	8	180	0.0	1007.6	0	0.000	0.0
20101111 18:55	4.3	2.8	4.3	77	0.7	6	14	180	0.0	1007.5	0	0.000	0.0
20101111 19:00	4.3	2.8	4.3	78	0.8	6	10	180	0.0	1007.3	0	0.025	0.0
20101111 19:05	4.2	4.2	4.2	78	0.7	5	10	180	0.0	1007.1	0	0.000	0.0
20101111 19:10	4.1	4.1	4.1	78	0.6	5	10	180	0.0	1007.1	0	0.000	0.0
20101111 19:15	4.0	4.0	4.0	78	0.5	2	5	180	0.0	1007.2	0	0.000	0.0
20101111 19:20	3.9	3.9	3.9	79	0.6	2	6	180	0.0	1007.2	0	0.000	0.0
20101111 19:25	3.8	3.8	3.8	79	0.5	3	10	202	0.0	1007.0	0	0.000	0.0
20101111 19:30	3.7	3.7	3.7	80	0.6	3	6	202	0.0	1007.0	0	0.000	0.0
20101111 19:35	3.7	3.7	3.7	80	0.5	5	8	202	0.0	1006.9	0	0.000	0.0
20101111 19:40	3.6	3.6	3.6	81	0.6	3	6	202	0.0	1006.9	0	0.000	0.0
20101111 19:45	3.5	3.5	3.5	81	0.6	5	8	202	0.0	1006.8	0	0.000	0.0
20101111 19:50	3.4	3.4	3.4	81	0.5	2	5	202	0.0	1006.5	0	0.000	0.0
20101111 19:55	3.4	3.4	3.4	81	0.4	3	8	202	0.0	1006.4	0	0.000	0.0
20101111 20:00	3.4	3.4	3.4	82	0.6	5	8	202	0.0	1006.3	0	0.025	0.0
20101111 20:05	3.3	3.3	3.3	82	0.6	5	8	202	0.0	1005.9	0	0.000	0.0
20101111 20:10	3.3	3.3	3.3	82	0.6	5	8	180	0.0	1005.8	0	0.000	0.0
20101111 20:15	3.3	3.3	3.3	82	0.6	3	6	180	0.0	1005.6	0	0.000	0.0
20101111 20:20	3.3	3.3	3.3	82	0.6	3	8	180	0.0	1005.7	0	0.000	0.0
20101111 20:25	3.4	3.4	3.4	82	0.6	3	6	202	0.0	1005.6	0	0.000	0.0
20101111 20:30	3.4	3.4	3.4	82	0.7	2	6	202	0.0	1005.6	0	0.000	0.0
20101111 20:35	3.5	3.5	3.5	82	0.7	3	8	202	0.0	1005.5	0	0.000	0.0
20101111 20:40	3.5	3.5	3.5	82	0.7	3	6	202	0.0	1005.4	0	0.000	0.0
20101111 20:45	3.6	3.6	3.6	82	0.8	5	8	202	0.0	1005.4	0	0.000	0.0
20101111 20:50	3.6	3.6	3.6	82	0.8	5	8	180	0.0	1005.3	0	0.000	0.0
20101111 20:55	3.6	2.0	3.6	82	0.8	6	11	158	0.0	1004.9	0	0.000	0.0
20101111 21:00	3.7	1.6	3.7	81	0.7	8	14	158	0.0	1004.6	0	0.025	0.0
20101111 21:05	3.8	2.2	3.8	81	0.8	6	10	158	0.0	1004.3	0	0.000	0.0
20101111 21:10	3.9	3.9	3.9	81	1.0	5	10	158	0.0	1004.2	0	0.000	0.0
20101111 21:15	4.1	4.1	4.1	80	0.9	3	8	158	0.0	1004.1	0	0.000	0.0
20101111 21:20	4.2	4.2	4.2	80	1.0	2	6	158	0.0	1004.1	0	0.000	0.0
20101111 21:25	4.3	4.3	4.3	80	1.1	3	6	202	0.0	1004.1	0	0.000	0.0
20101111 21:30	4.3	4.3	4.3	80	1.1	3	10	202	0.0	1004.0	0	0.000	0.0
20101111 21:35	4.2	4.2	4.2	81	1.3	3	8	248	0.0	1004.2	0	0.000	0.0
20101111 21:40	4.2	2.6	4.2	81	1.2	6	16	248	0.0	1004.4	0	0.000	0.0
20101111 21:45	4.2	2.7	4.2	81	1.3	6	10	225	0.0	1004.2	0	0.000	0.0
20101111 21:50	4.4	2.1	4.4	79	1.1	10	32	202	0.0	1004.3	0	0.000	0.0
20101111 21:55	4.7	3.2	4.7	78	1.2	6	16	225	0.0	1004.3	0	0.000	0.0
20101111 22:00	5.4	2.6	5.4	73	0.9	13	37	225	0.0	1004.1	0	0.025	0.0
20101111 22:05	6.6	3.3	6.6	69	1.3	18	40	225	0.0	1003.8	0	0.000	0.0
20101111 22:10	7.0	4.5	7.0	66	1.1	13	26	202	0.0	1003.5	0	0.000	0.0
20101111 22:15	6.9	4.4	6.9	68	1.4	13	18	180	0.0	1003.3	0	0.000	0.0
20101111 22:20	6.9	-100000.0	6.9	69	1.7	-100000	0	-100000	0.0	1003.3	-100000	0.000	0.0
20101111 22:25	7.4	4.6	7.4	68	1.9	16	26	225	0.2	1003.3	0	0.000	0.0
20101111 22:30	7.2	4.8	7.2	70	2.1	13	26	202	0.0	1003.1	0	0.000	0.0
20101111 22:35	6.7	4.5	6.7	72	2.0	11	23	202	0.2	1002.5	0	0.000	0.0
20101111 22:40	6.5	3.9	6.5	74	2.2	13	26	202	0.0	1002.3	0	0.000	0.0
20101111 22:45	6.4	3.8	6.4	75	2.3	13	26	202	0.2	1002.3	0	0.000	0.0
20101111 22:50	6.3	4.0	6.3	77	2.6	11	21	202	0.0	1002.4	0	0.000	0.0
20101111 22:55	6.3	4.0	6.3	76	2.4	11	23	202	0.2	1002.3	0	0.000	0.0
20101111 23:00	6.3	4.3	6.3	77	2.5	10	21	202	0.2	1002.2	0	0.051	0.0
20101111 23:05	6.2	4.5	6.2	79	2.8	8	16	180	0.0	1001.8	0	0.000	0.0
20101111 23:10	6.0	4.3	6.0	80	2.8	8	14	180	0.2	1001.7	0	0.000	0.0
20101111 23:15	5.8	4.1	5.8	81	2.8	8	16	180	0.2	1001.6	0	0.000	0.0
20101111 23:20	5.7	4.4	5.7	81	2.7	6	18	202	0.0	1001.6	0	0.000	0.0
20101111 23:25	5.7	3.9	5.7	83	3.0	8	18	180	0.2	1001.5	0	0.000	0.0
20101111 23:30	5.7	3.9	5.7	83	3.0	8	18	180	0.2	1001.6	0	0.000	0.0
20101111 23:35	5.7	4.0	5.7	84	3.2	8	14	202	0.2	1001.6	0	0.000	0.0
20101111 23:40	5.8	4.1	5.8	84	3.3	8	16	202	0.2	1001.6	0	0.000	0.0
20101111 23:45	5.8	3.1	5.8	85	3.5	13	19	202	0.2	1001.5	0	0.000	0.0
20101111 23:50	5.9	3.5	5.9	85	3.6	11	23	202	0.0	1001.4	0	0.000	0.0
20101111 23:55	5.9	3.6	5.9	85	3.6	11	21	202	0.2	1001.4	0	0.000	0.0



Please note the license to use and transfer of this data:
http://creativecommons.org/licenses/by-nc-sa/3.0/deed.en

Bitte beachten sie die Lizenz zur Verwertung und Weitergabe der Daten:
http://creativecommons.org/licenses/by-nc-sa/3.0/deed.de

zurück zur Übersicht der Archivdaten (Monats und Tagesdaten)

Cookies helfen bei der Bereitstellung von Inhalten. Durch die Nutzung dieser Seiten erklärst du dich damit einverstanden, dass Cookies auf deinem Rechner gespeichert werden. Weitere Information